Time;durP1;ratioP1;P1;durP2;ratioP2;P2;SDS_P1;SDS_P2;PMS_P1;PMS_P2;Temp;Humidity;BMP_temperature;BMP_pressure;BME280_temperature;BME280_humidity;BME280_pressure;Samples;Min_cycle;Max_cycle;Signal;HPM_P1;HPM_P2
2022/10/12 00:00:46;;;;;;;;;;;18.70;1.00;;;;;;5036881;28;19932;-56
2022/10/12 00:03:13;;;;;;;;;;;18.60;1.00;;;;;;5036268;28;20371;-58
2022/10/12 00:05:39;;;;;;;;;;;18.60;1.00;;;;;;5036254;28;19959;-55
2022/10/12 00:08:06;;;;;;;;;;;18.60;1.00;;;;;;5036824;28;19921;-47
2022/10/12 00:10:33;;;;;;;;;;;18.60;1.00;;;;;;5036504;28;19992;-55
2022/10/12 00:12:59;;;;;;;;;;;18.50;1.00;;;;;;5035969;28;19927;-55
2022/10/12 00:15:26;;;;;;;;;;;18.50;1.00;;;;;;5036224;28;19921;-56
2022/10/12 00:17:53;;;;;;;;;;;18.50;1.00;;;;;;5036333;28;19920;-52
2022/10/12 00:20:19;;;;;;;;;;;18.50;1.00;;;;;;5036342;28;19920;-52
2022/10/12 00:22:46;;;;;;;;;;;18.50;1.00;;;;;;5036180;28;19921;-51
2022/10/12 00:25:13;;;;;;;;;;;18.50;1.00;;;;;;5036203;28;19927;-57
2022/10/12 00:27:40;;;;;;;;;;;18.50;1.00;;;;;;5036220;28;19948;-55
2022/10/12 00:30:07;;;;;;;;;;;18.50;1.00;;;;;;5035948;28;19921;-55
2022/10/12 00:32:33;;;;;;;;;;;18.50;1.00;;;;;;5035639;28;20298;-53
2022/10/12 00:35:00;;;;;;;;;;;18.50;1.00;;;;;;5035950;28;19928;-55
2022/10/12 00:37:27;;;;;;;;;;;18.50;1.00;;;;;;5035981;28;20240;-56
2022/10/12 00:39:54;;;;;;;;;;;18.50;1.00;;;;;;5036339;28;19953;-51
2022/10/12 00:42:20;;;;;;;;;;;18.50;1.00;;;;;;5035482;28;20031;-52
2022/10/12 00:44:49;;;;;;;;;;;18.50;1.00;;;;;;5035535;28;20429;-52
2022/10/12 00:47:23;;;;;;;;;;;18.40;1.00;;;;;;5035815;28;19921;-55
2022/10/12 00:49:53;;;;;;;;;;;18.50;1.00;;;;;;5035730;28;19968;-55
2022/10/12 00:52:21;;;;;;;;;;;18.50;1.00;;;;;;5035427;28;19921;-58
2022/10/12 00:54:49;;;;;;;;;;;18.50;1.00;;;;;;5035265;28;19928;-55
2022/10/12 00:57:17;;;;;;;;;;;18.50;1.00;;;;;;5035544;28;19921;-51
2022/10/12 00:59:46;;;;;;;;;;;18.50;1.00;;;;;;5034239;28;20370;-55
2022/10/12 01:02:13;;;;;;;;;;;18.50;1.00;;;;;;5035114;28;20328;-50
2022/10/12 01:04:40;;;;;;;;;;;18.50;1.00;;;;;;5035382;28;19921;-55
2022/10/12 01:07:07;;;;;;;;;;;18.50;1.00;;;;;;5035927;28;19921;-49
2022/10/12 01:09:34;;;;;;;;;;;18.50;1.00;;;;;;5034000;28;20297;-50
2022/10/12 01:12:02;;;;;;;;;;;18.40;1.00;;;;;;5034951;28;19921;-51
2022/10/12 01:14:29;;;;;;;;;;;18.40;1.00;;;;;;5035349;28;19921;-49
2022/10/12 01:17:05;;;;;;;;;;;18.40;1.00;;;;;;5035504;28;19921;-49
2022/10/12 01:19:52;;;;;;;;;;;18.40;1.00;;;;;;5035241;28;19921;-50
2022/10/12 01:22:23;;;;;;;;;;;18.40;1.00;;;;;;5033617;28;19921;-46
2022/10/12 01:24:53;;;;;;;;;;;18.40;1.00;;;;;;5034948;28;20382;-52
2022/10/12 01:27:31;;;;;;;;;;;18.40;1.00;;;;;;5035340;28;19964;-51
2022/10/12 01:30:12;;;;;;;;;;;18.40;1.00;;;;;;5035215;28;19932;-55
2022/10/12 01:32:42;;;;;;;;;;;18.30;1.00;;;;;;5034708;28;20416;-51
2022/10/12 01:35:14;;;;;;;;;;;18.40;1.00;;;;;;5034808;28;19921;-58
2022/10/12 01:37:44;;;;;;;;;;;18.30;1.00;;;;;;5034816;28;19925;-53
2022/10/12 01:40:13;;;;;;;;;;;18.30;1.00;;;;;;5035159;28;19921;-59
2022/10/12 01:42:42;;;;;;;;;;;18.20;1.00;;;;;;5034415;28;19928;-55
2022/10/12 01:45:13;;;;;;;;;;;18.20;1.00;;;;;;5034897;28;19921;-54
2022/10/12 01:47:41;;;;;;;;;;;18.20;1.00;;;;;;5034655;28;19920;-54
2022/10/12 01:50:11;;;;;;;;;;;18.20;1.00;;;;;;5034410;28;19921;-53
2022/10/12 01:52:43;;;;;;;;;;;18.10;1.00;;;;;;5034185;28;19921;-55
2022/10/12 01:55:30;;;;;;;;;;;18.10;1.00;;;;;;5034608;28;19975;-50
2022/10/12 01:57:57;;;;;;;;;;;18.10;1.00;;;;;;5034313;28;19921;-57
2022/10/12 02:00:24;;;;;;;;;;;18.10;1.00;;;;;;5034066;28;20359;-53
2022/10/12 02:02:53;;;;;;;;;;;18.10;1.00;;;;;;5035121;28;19974;-57
2022/10/12 02:05:28;;;;;;;;;;;18.10;1.00;;;;;;5034111;28;19920;-50
2022/10/12 02:08:00;;;;;;;;;;;18.10;1.00;;;;;;5033646;28;20345;-55
2022/10/12 02:10:29;;;;;;;;;;;18.10;1.00;;;;;;5034506;28;19921;-49
2022/10/12 02:12:57;;;;;;;;;;;18.10;1.00;;;;;;5033715;28;19931;-57
2022/10/12 02:15:24;;;;;;;;;;;18.10;1.00;;;;;;5034358;28;20367;-54
2022/10/12 02:17:52;;;;;;;;;;;18.10;1.00;;;;;;5034039;28;19921;-50
2022/10/12 02:20:22;;;;;;;;;;;18.10;1.00;;;;;;5034684;28;19921;-53
2022/10/12 02:22:50;;;;;;;;;;;18.10;1.00;;;;;;5033797;28;19921;-55
2022/10/12 02:25:18;;;;;;;;;;;18.10;1.00;;;;;;5034204;28;19975;-54
2022/10/12 02:27:48;;;;;;;;;;;18.10;1.00;;;;;;5034140;28;19928;-53
2022/10/12 02:30:15;;;;;;;;;;;18.10;1.00;;;;;;5034245;28;19921;-52
2022/10/12 02:33:01;;;;;;;;;;;18.10;1.00;;;;;;5033492;28;19921;-57
2022/10/12 02:35:37;;;;;;;;;;;18.10;1.00;;;;;;5034059;28;20425;-56
2022/10/12 02:38:08;;;;;;;;;;;18.10;1.00;;;;;;5033611;28;20375;-50
2022/10/12 02:40:44;;;;;;;;;;;18.10;1.00;;;;;;5033773;28;19931;-55
2022/10/12 02:43:14;;;;;;;;;;;18.00;1.00;;;;;;5033470;28;19924;-51
2022/10/12 02:45:42;;;;;;;;;;;18.00;1.00;;;;;;5033660;28;19978;-49
2022/10/12 02:48:12;;;;;;;;;;;18.00;1.00;;;;;;5033756;28;20424;-51
2022/10/12 02:50:39;;;;;;;;;;;18.10;1.00;;;;;;5033676;28;19921;-51
2022/10/12 02:53:06;;;;;;;;;;;18.00;1.00;;;;;;5033208;28;20382;-51
2022/10/12 02:55:36;;;;;;;;;;;18.00;1.00;;;;;;5033511;28;19925;-54
2022/10/12 02:58:03;;;;;;;;;;;18.00;1.00;;;;;;5033593;28;19927;-49
2022/10/12 03:00:32;;;;;;;;;;;18.00;1.00;;;;;;5033764;28;19925;-54
2022/10/12 03:02:59;;;;;;;;;;;18.00;1.00;;;;;;5033439;28;19921;-53
2022/10/12 03:05:26;;;;;;;;;;;18.00;1.00;;;;;;5033497;28;19924;-50
2022/10/12 03:07:52;;;;;;;;;;;18.00;1.00;;;;;;5033197;28;19975;-54
2022/10/12 03:10:19;;;;;;;;;;;17.90;1.00;;;;;;5033492;28;20367;-55
2022/10/12 03:12:46;;;;;;;;;;;17.90;1.00;;;;;;5033254;28;20259;-57
2022/10/12 03:15:16;;;;;;;;;;;18.00;1.00;;;;;;5033534;28;19995;-53
2022/10/12 03:17:42;;;;;;;;;;;17.90;1.00;;;;;;5033900;28;19995;-54
2022/10/12 03:20:09;;;;;;;;;;;17.90;1.00;;;;;;5037639;28;19967;-54
2022/10/12 03:22:36;;;;;;;;;;;17.90;1.00;;;;;;5036932;28;20019;-56
2022/10/12 03:25:03;;;;;;;;;;;17.90;1.00;;;;;;5037318;28;19921;-55
2022/10/12 03:27:29;;;;;;;;;;;17.90;1.00;;;;;;5037125;28;19990;-55
2022/10/12 03:29:56;;;;;;;;;;;17.90;1.00;;;;;;5037328;28;19929;-54
2022/10/12 03:32:23;;;;;;;;;;;17.80;1.00;;;;;;5036772;28;20421;-54
2022/10/12 03:34:50;;;;;;;;;;;17.80;1.00;;;;;;5036838;28;19921;-59
2022/10/12 03:37:16;;;;;;;;;;;17.80;1.00;;;;;;5036896;28;19987;-55
2022/10/12 03:39:43;;;;;;;;;;;17.80;1.00;;;;;;5037029;28;19967;-57
2022/10/12 03:42:10;;;;;;;;;;;17.80;1.00;;;;;;5036591;28;19928;-52
2022/10/12 03:44:37;;;;;;;;;;;17.70;1.00;;;;;;5036846;28;19921;-57
2022/10/12 03:47:03;;;;;;;;;;;17.80;1.00;;;;;;5036794;28;19921;-57
2022/10/12 03:49:30;;;;;;;;;;;17.70;1.00;;;;;;5037282;28;19948;-53
2022/10/12 03:51:57;;;;;;;;;;;17.70;1.00;;;;;;5037029;28;19925;-54
2022/10/12 03:54:23;;;;;;;;;;;17.70;1.00;;;;;;5036421;28;19928;-54
2022/10/12 03:56:50;;;;;;;;;;;17.70;1.00;;;;;;5036551;28;19960;-55
2022/10/12 03:59:17;;;;;;;;;;;17.70;1.00;;;;;;5036915;28;19921;-53
2022/10/12 04:01:43;;;;;;;;;;;17.70;1.00;;;;;;5036147;28;20294;-59
2022/10/12 04:04:10;;;;;;;;;;;17.70;1.00;;;;;;5036822;28;19967;-55
2022/10/12 04:06:37;;;;;;;;;;;17.70;1.00;;;;;;5037034;28;19947;-56
2022/10/12 04:09:04;;;;;;;;;;;17.70;1.00;;;;;;5036265;28;19925;-53
2022/10/12 04:11:31;;;;;;;;;;;17.70;1.00;;;;;;5036748;28;19921;-58
2022/10/12 04:13:57;;;;;;;;;;;17.70;1.00;;;;;;5036278;28;19967;-58
2022/10/12 04:16:24;;;;;;;;;;;17.70;1.00;;;;;;5036213;28;19921;-56
2022/10/12 04:18:56;;;;;;;;;;;17.70;1.00;;;;;;5036774;28;19929;-57
2022/10/12 04:21:23;;;;;;;;;;;17.70;1.00;;;;;;5036705;28;19928;-55
2022/10/12 04:23:50;;;;;;;;;;;17.70;1.00;;;;;;5034920;28;19921;-53
2022/10/12 04:26:17;;;;;;;;;;;17.70;1.00;;;;;;5029584;28;19921;-54
2022/10/12 04:28:43;;;;;;;;;;;17.60;1.00;;;;;;5036020;28;19921;-56
2022/10/12 04:31:10;;;;;;;;;;;17.60;1.00;;;;;;5035328;28;20298;-56
2022/10/12 04:33:37;;;;;;;;;;;17.60;1.00;;;;;;5035463;28;19925;-53
2022/10/12 04:36:04;;;;;;;;;;;17.60;1.00;;;;;;5036470;28;19928;-56
2022/10/12 04:38:30;;;;;;;;;;;17.60;1.00;;;;;;5035841;28;20363;-53
2022/10/12 04:40:57;;;;;;;;;;;17.80;1.00;;;;;;5036123;28;19928;-51
2022/10/12 04:43:24;;;;;;;;;;;18.00;1.00;;;;;;5020137;28;19967;-53
2022/10/12 04:45:55;;;;;;;;;;;18.00;1.00;;;;;;5015857;28;19921;-54
2022/10/12 04:48:22;;;;;;;;;;;17.80;1.00;;;;;;5032199;28;19927;-53
2022/10/12 04:50:49;;;;;;;;;;;17.70;1.00;;;;;;5035438;28;19925;-54
2022/10/12 04:53:16;;;;;;;;;;;17.70;1.00;;;;;;5035003;28;19932;-53
2022/10/12 04:55:43;;;;;;;;;;;17.80;1.00;;;;;;5035342;28;19955;-57
2022/10/12 04:58:09;;;;;;;;;;;17.70;1.00;;;;;;5035992;28;19921;-56
2022/10/12 05:00:36;;;;;;;;;;;17.70;1.00;;;;;;5035378;28;20404;-54
2022/10/12 05:03:04;;;;;;;;;;;17.60;1.00;;;;;;5035318;28;19957;-55
2022/10/12 05:05:30;;;;;;;;;;;17.60;1.00;;;;;;5035332;28;20290;-52
2022/10/12 05:07:57;;;;;;;;;;;17.60;1.00;;;;;;5035425;28;19924;-51
2022/10/12 05:10:24;;;;;;;;;;;17.60;1.00;;;;;;5035209;28;19975;-55
2022/10/12 05:12:51;;;;;;;;;;;17.50;1.00;;;;;;5034677;28;19921;-50
2022/10/12 05:15:18;;;;;;;;;;;17.50;1.00;;;;;;5035386;28;19949;-51
2022/10/12 05:17:44;;;;;;;;;;;17.50;1.00;;;;;;5035790;28;20336;-49
2022/10/12 05:20:11;;;;;;;;;;;17.50;1.00;;;;;;5034741;28;19928;-51
2022/10/12 05:22:38;;;;;;;;;;;17.50;1.00;;;;;;5034817;28;19968;-51
2022/10/12 05:25:05;;;;;;;;;;;17.50;1.00;;;;;;5034954;28;19956;-53
2022/10/12 05:27:32;;;;;;;;;;;17.60;1.00;;;;;;5035505;28;19928;-52
2022/10/12 05:29:58;;;;;;;;;;;17.50;1.00;;;;;;5034763;28;19983;-53
2022/10/12 05:32:25;;;;;;;;;;;17.60;1.00;;;;;;5034598;28;19999;-55
2022/10/12 05:34:52;;;;;;;;;;;17.60;1.00;;;;;;5035037;28;19943;-55
2022/10/12 05:37:18;;;;;;;;;;;17.60;1.00;;;;;;5033346;28;19925;-54
2022/10/12 05:39:45;;;;;;;;;;;17.50;1.00;;;;;;5035104;28;19943;-52
2022/10/12 05:42:12;;;;;;;;;;;17.50;1.00;;;;;;5033398;28;20036;-56
2022/10/12 05:44:39;;;;;;;;;;;17.50;1.00;;;;;;5034394;28;19928;-50
2022/10/12 05:47:06;;;;;;;;;;;17.50;1.00;;;;;;5034770;28;19975;-51
2022/10/12 05:49:33;;;;;;;;;;;17.50;1.00;;;;;;5034547;28;19928;-51
2022/10/12 05:51:59;;;;;;;;;;;17.40;1.00;;;;;;5034238;28;20271;-50
2022/10/12 05:54:26;;;;;;;;;;;17.50;1.00;;;;;;5034676;28;20263;-47
2022/10/12 05:56:53;;;;;;;;;;;17.50;1.00;;;;;;5034253;28;19921;-51
2022/10/12 05:59:20;;;;;;;;;;;17.40;1.00;;;;;;5034586;28;19947;-53
2022/10/12 06:01:48;;;;;;;;;;;17.40;1.00;;;;;;5032174;28;19921;-50
2022/10/12 06:04:15;;;;;;;;;;;17.40;1.00;;;;;;5029632;28;19925;-52
2022/10/12 06:06:42;;;;;;;;;;;17.50;1.00;;;;;;5026220;28;19931;-56
2022/10/12 06:09:11;;;;;;;;;;;17.40;1.00;;;;;;5032828;28;20023;-53
2022/10/12 06:11:38;;;;;;;;;;;17.40;1.00;;;;;;5033754;28;20414;-50
2022/10/12 06:14:04;;;;;;;;;;;17.40;1.00;;;;;;5033863;28;19924;-50
2022/10/12 06:16:31;;;;;;;;;;;17.40;1.00;;;;;;5034099;28;20425;-46
2022/10/12 06:18:58;;;;;;;;;;;17.40;1.00;;;;;;5034207;28;20438;-53
2022/10/12 06:21:25;;;;;;;;;;;17.40;1.00;;;;;;5033917;28;19974;-48
2022/10/12 06:24:00;;;;;;;;;;;17.40;1.00;;;;;;5033993;28;20019;-51
2022/10/12 06:26:26;;;;;;;;;;;17.40;1.00;;;;;;5034290;28;19971;-52
2022/10/12 06:28:53;;;;;;;;;;;17.30;1.00;;;;;;5033903;28;19928;-51
2022/10/12 06:31:20;;;;;;;;;;;17.30;1.00;;;;;;5034069;28;19921;-46
2022/10/12 06:33:49;;;;;;;;;;;17.40;1.00;;;;;;5033438;28;20350;-52
2022/10/12 06:36:15;;;;;;;;;;;17.40;1.00;;;;;;5033576;28;20375;-50
2022/10/12 06:38:42;;;;;;;;;;;17.30;1.00;;;;;;5033462;28;20290;-53
2022/10/12 06:41:09;;;;;;;;;;;17.40;1.00;;;;;;5033864;28;19921;-47
2022/10/12 06:43:36;;;;;;;;;;;17.30;1.00;;;;;;5033509;28;19921;-46
2022/10/12 06:46:03;;;;;;;;;;;17.40;1.00;;;;;;5033599;28;19921;-52
2022/10/12 06:48:29;;;;;;;;;;;17.40;1.00;;;;;;5033960;28;19936;-49
2022/10/12 06:50:57;;;;;;;;;;;17.40;1.00;;;;;;5033571;28;20028;-49
2022/10/12 06:53:26;;;;;;;;;;;17.30;1.00;;;;;;5036700;28;19921;-50
2022/10/12 06:55:52;;;;;;;;;;;17.30;1.00;;;;;;5040290;28;19921;-49
2022/10/12 06:58:19;;;;;;;;;;;17.40;1.00;;;;;;5039965;28;19921;-51
2022/10/12 07:00:46;;;;;;;;;;;17.30;1.00;;;;;;5040242;28;19928;-54
2022/10/12 07:03:13;;;;;;;;;;;17.30;1.00;;;;;;5039710;28;20027;-50
2022/10/12 07:05:39;;;;;;;;;;;17.30;1.00;;;;;;5039990;28;20403;-46
2022/10/12 07:08:06;;;;;;;;;;;17.30;1.00;;;;;;5040013;28;19928;-50
2022/10/12 07:10:33;;;;;;;;;;;17.30;1.00;;;;;;5040083;28;19921;-56
2022/10/12 07:13:00;;;;;;;;;;;17.30;1.00;;;;;;5039868;28;19921;-49
2022/10/12 07:15:26;;;;;;;;;;;17.30;1.00;;;;;;5039806;28;19944;-47
2022/10/12 07:17:53;;;;;;;;;;;17.30;1.00;;;;;;5039855;28;19920;-53
2022/10/12 07:20:20;;;;;;;;;;;17.30;1.00;;;;;;5039836;28;20449;-55
2022/10/12 07:22:47;;;;;;;;;;;17.30;1.00;;;;;;5039850;28;19920;-52
2022/10/12 07:25:14;;;;;;;;;;;17.20;1.00;;;;;;5040051;28;19920;-49
2022/10/12 07:27:40;;;;;;;;;;;17.20;1.00;;;;;;5039804;28;19921;-56
2022/10/12 07:30:08;;;;;;;;;;;17.20;1.00;;;;;;5039780;28;19921;-54
2022/10/12 07:32:35;;;;;;;;;;;17.20;1.00;;;;;;5039508;28;19921;-55
2022/10/12 07:35:01;;;;;;;;;;;17.20;1.00;;;;;;5039577;28;20389;-53
2022/10/12 07:37:28;;;;;;;;;;;17.20;1.00;;;;;;5039321;28;20287;-51
2022/10/12 07:39:56;;;;;;;;;;;17.10;1.00;;;;;;5039815;28;19921;-54
2022/10/12 07:42:23;;;;;;;;;;;17.10;1.00;;;;;;5039623;28;19962;-48
2022/10/12 07:44:50;;;;;;;;;;;17.10;1.00;;;;;;5039599;28;19921;-49
2022/10/12 07:47:18;;;;;;;;;;;17.10;1.00;;;;;;5039704;28;19921;-50
2022/10/12 07:49:45;;;;;;;;;;;17.10;1.00;;;;;;5039830;28;19927;-53
2022/10/12 07:52:12;;;;;;;;;;;17.10;1.00;;;;;;5039453;28;19921;-51
2022/10/12 07:54:38;;;;;;;;;;;17.10;1.00;;;;;;5039456;28;19975;-53
2022/10/12 07:57:05;;;;;;;;;;;17.10;1.00;;;;;;5039492;28;19921;-49
2022/10/12 07:59:32;;;;;;;;;;;17.10;1.00;;;;;;5039633;28;20445;-48
2022/10/12 08:01:59;;;;;;;;;;;17.10;1.00;;;;;;5039596;28;19931;-54
2022/10/12 08:04:25;;;;;;;;;;;17.10;1.00;;;;;;5037599;28;20458;-54
2022/10/12 08:06:52;;;;;;;;;;;17.10;1.00;;;;;;5036448;28;19921;-47
2022/10/12 08:09:19;;;;;;;;;;;17.10;1.00;;;;;;5036591;28;19925;-53
2022/10/12 08:11:46;;;;;;;;;;;17.20;1.00;;;;;;5036141;28;19920;-54
2022/10/12 08:14:13;;;;;;;;;;;17.20;1.00;;;;;;5036563;28;19924;-54
2022/10/12 08:16:41;;;;;;;;;;;17.20;1.00;;;;;;5036303;28;19921;-55
2022/10/12 08:19:07;;;;;;;;;;;17.30;1.00;;;;;;5036139;28;19928;-51
2022/10/12 08:21:34;;;;;;;;;;;17.30;1.00;;;;;;5036092;28;19921;-54
2022/10/12 08:24:01;;;;;;;;;;;17.20;1.00;;;;;;5035971;28;20370;-53
2022/10/12 08:26:29;;;;;;;;;;;17.30;1.00;;;;;;5036563;28;19921;-53
2022/10/12 08:28:55;;;;;;;;;;;17.30;1.00;;;;;;5035933;28;20397;-56
2022/10/12 08:31:22;;;;;;;;;;;17.30;1.00;;;;;;5036086;28;19925;-56
2022/10/12 08:33:49;;;;;;;;;;;17.30;1.00;;;;;;5035671;28;19925;-50
2022/10/12 08:36:16;;;;;;;;;;;17.50;1.00;;;;;;5035736;28;19920;-55
2022/10/12 08:38:43;;;;;;;;;;;17.60;1.00;;;;;;5035861;28;19975;-56
2022/10/12 08:41:13;;;;;;;;;;;17.60;1.00;;;;;;5036227;28;19968;-51
2022/10/12 08:43:39;;;;;;;;;;;17.70;1.00;;;;;;5035891;28;19921;-53
2022/10/12 08:46:06;;;;;;;;;;;17.80;1.00;;;;;;5035727;28;19925;-49
2022/10/12 08:48:37;;;;;;;;;;;17.80;1.00;;;;;;5035834;28;19924;-51
2022/10/12 08:51:07;;;;;;;;;;;17.90;1.00;;;;;;5035725;28;19921;-50
2022/10/12 08:53:52;;;;;;;;;;;17.90;1.00;;;;;;5035981;28;19921;-50
2022/10/12 08:56:19;;;;;;;;;;;17.90;1.00;;;;;;5035320;28;19958;-46
2022/10/12 08:58:47;;;;;;;;;;;17.90;1.00;;;;;;5035327;28;20351;-52
2022/10/12 09:01:20;;;;;;;;;;;17.90;1.00;;;;;;5035712;28;19921;-54
2022/10/12 09:03:53;;;;;;;;;;;18.00;1.00;;;;;;5035475;28;19928;-52
2022/10/12 09:06:27;;;;;;;;;;;18.00;1.00;;;;;;5035509;28;19928;-52
2022/10/12 09:09:12;;;;;;;;;;;18.00;1.00;;;;;;5035287;28;19921;-52
2022/10/12 09:11:51;;;;;;;;;;;18.10;1.00;;;;;;5034885;28;19925;-56
2022/10/12 09:14:20;;;;;;;;;;;18.10;1.00;;;;;;5035253;28;19920;-54
2022/10/12 09:16:47;;;;;;;;;;;18.10;1.00;;;;;;5034800;28;19921;-51
2022/10/12 09:19:18;;;;;;;;;;;18.20;1.00;;;;;;5034925;28;19951;-52
2022/10/12 09:21:46;;;;;;;;;;;18.20;1.00;;;;;;5034724;28;19927;-54
2022/10/12 09:24:18;;;;;;;;;;;18.20;1.00;;;;;;5034943;28;19929;-54
2022/10/12 09:26:47;;;;;;;;;;;18.30;1.00;;;;;;5035041;28;19928;-52
2022/10/12 09:29:27;;;;;;;;;;;18.30;1.00;;;;;;5034743;28;19971;-54
2022/10/12 09:32:09;;;;;;;;;;;18.30;1.00;;;;;;5034404;28;19921;-50
2022/10/12 09:34:36;;;;;;;;;;;18.30;1.00;;;;;;5034796;28;19921;-51
2022/10/12 09:37:03;;;;;;;;;;;18.40;1.00;;;;;;5034575;28;19925;-50
2022/10/12 09:39:30;;;;;;;;;;;18.40;1.00;;;;;;5034678;28;19932;-52
2022/10/12 09:41:56;;;;;;;;;;;18.40;1.00;;;;;;5034917;28;19925;-54
2022/10/12 09:44:42;;;;;;;;;;;18.40;1.00;;;;;;5034415;28;20266;-54
2022/10/12 09:47:22;;;;;;;;;;;18.40;1.00;;;;;;5034623;28;19921;-57
2022/10/12 09:49:50;;;;;;;;;;;18.50;1.00;;;;;;5034527;28;19925;-54
2022/10/12 09:52:20;;;;;;;;;;;18.50;1.00;;;;;;5034058;28;19975;-51
2022/10/12 09:54:51;;;;;;;;;;;18.50;1.00;;;;;;5034329;28;20331;-55
2022/10/12 09:57:22;;;;;;;;;;;18.50;1.00;;;;;;5034216;28;20566;-51
2022/10/12 09:59:49;;;;;;;;;;;18.60;1.00;;;;;;5034512;28;19921;-54
2022/10/12 10:02:25;;;;;;;;;;;18.60;1.00;;;;;;5034173;28;19927;-49
2022/10/12 10:04:53;;;;;;;;;;;18.60;1.00;;;;;;5034106;28;19921;-53
2022/10/12 10:07:22;;;;;;;;;;;18.60;1.00;;;;;;5034627;28;19994;-54
2022/10/12 10:10:08;;;;;;;;;;;18.60;1.00;;;;;;5034127;28;20359;-52
2022/10/12 10:12:39;;;;;;;;;;;18.60;1.00;;;;;;5033767;28;19928;-54
2022/10/12 10:15:17;;;;;;;;;;;18.70;1.00;;;;;;5034554;28;19921;-56
2022/10/12 10:17:47;;;;;;;;;;;18.70;1.00;;;;;;5033950;28;20309;-59
2022/10/12 10:20:22;;;;;;;;;;;18.70;1.00;;;;;;5033897;28;19944;-57
2022/10/12 10:22:49;;;;;;;;;;;18.70;1.00;;;;;;5033846;28;20012;-45
2022/10/12 10:25:19;;;;;;;;;;;18.70;1.00;;;;;;5034048;28;20357;-52
2022/10/12 10:27:46;;;;;;;;;;;18.70;1.00;;;;;;5033425;28;20390;-46
2022/10/12 10:30:13;;;;;;;;;;;18.80;1.00;;;;;;5034379;28;20003;-46
2022/10/12 10:33:07;;;;;;;;;;;18.80;1.00;;;;;;5033680;28;19983;-50
2022/10/12 10:35:34;;;;;;;;;;;18.80;1.00;;;;;;5033940;28;19921;-50
2022/10/12 10:38:02;;;;;;;;;;;18.80;1.00;;;;;;5033575;28;20267;-50
2022/10/12 10:40:31;;;;;;;;;;;18.80;1.00;;;;;;5034028;28;19964;-53
2022/10/12 10:43:04;;;;;;;;;;;18.80;1.00;;;;;;5033526;28;20349;-52
2022/10/12 10:45:31;;;;;;;;;;;18.80;1.00;;;;;;5033932;28;19964;-52
2022/10/12 10:48:05;;;;;;;;;;;18.80;1.00;;;;;;5034008;28;19956;-50
2022/10/12 10:50:32;;;;;;;;;;;18.80;1.00;;;;;;5034148;28;20385;-47
2022/10/12 10:53:01;;;;;;;;;;;18.80;1.00;;;;;;5033153;28;19928;-55
2022/10/12 10:55:40;;;;;;;;;;;18.80;1.00;;;;;;5033324;28;19925;-56
2022/10/12 10:58:22;;;;;;;;;;;18.80;1.00;;;;;;5033820;28;19921;-53
2022/10/12 11:00:50;;;;;;;;;;;18.80;1.00;;;;;;5033473;28;19925;-52
2022/10/12 11:03:53;;;;;;;;;;;18.80;1.00;;;;;;5033100;28;19925;-54
2022/10/12 11:06:28;;;;;;;;;;;18.80;1.00;;;;;;4992064;28;20366;-45
2022/10/12 11:09:01;;;;;;;;;;;18.80;1.00;;;;;;5028234;28;19983;-47
2022/10/12 11:11:30;;;;;;;;;;;18.90;1.00;;;;;;5033534;28;19921;-51
2022/10/12 11:14:01;;;;;;;;;;;18.90;1.00;;;;;;5033071;28;19948;-50
2022/10/12 11:16:33;;;;;;;;;;;18.90;1.00;;;;;;5033210;28;19975;-49
2022/10/12 11:19:20;;;;;;;;;;;18.80;1.00;;;;;;5033116;28;19948;-54
2022/10/12 11:21:58;;;;;;;;;;;18.80;1.00;;;;;;5033211;28;20011;-50
2022/10/12 11:24:30;;;;;;;;;;;18.80;1.00;;;;;;5033820;28;20512;-49
2022/10/12 11:27:02;;;;;;;;;;;18.80;1.00;;;;;;5033291;28;19920;-57
2022/10/12 11:29:28;;;;;;;;;;;18.80;1.00;;;;;;5033213;28;19921;-50
2022/10/12 11:32:02;;;;;;;;;;;18.80;1.00;;;;;;5033110;28;20371;-55
2022/10/12 11:34:31;;;;;;;;;;;18.80;1.00;;;;;;5033487;28;19925;-49
2022/10/12 11:36:57;;;;;;;;;;;18.80;1.00;;;;;;5032880;28;19925;-54
2022/10/12 11:39:46;;;;;;;;;;;18.80;1.00;;;;;;5033982;28;20012;-53
2022/10/12 11:42:17;;;;;;;;;;;18.80;1.00;;;;;;5036793;28;20337;-53
2022/10/12 11:44:48;;;;;;;;;;;18.80;1.00;;;;;;5036794;28;19928;-49
2022/10/12 11:47:21;;;;;;;;;;;18.80;1.00;;;;;;5037227;28;19925;-50
2022/10/12 11:49:54;;;;;;;;;;;18.80;1.00;;;;;;5036980;28;20310;-49
2022/10/12 11:52:21;;;;;;;;;;;18.80;1.00;;;;;;5036215;28;19925;-53
2022/10/12 11:54:58;;;;;;;;;;;18.80;1.00;;;;;;5037015;28;19921;-49
2022/10/12 11:57:27;;;;;;;;;;;18.80;1.00;;;;;;5036325;28;19921;-53
2022/10/12 12:00:00;;;;;;;;;;;18.80;1.00;;;;;;5036637;28;19925;-53
2022/10/12 12:02:31;;;;;;;;;;;18.80;1.00;;;;;;5036405;28;19921;-51
2022/10/12 12:04:58;;;;;;;;;;;18.80;1.00;;;;;;5036997;28;19928;-49
2022/10/12 12:07:37;;;;;;;;;;;18.70;1.00;;;;;;5036356;28;19921;-58
2022/10/12 12:10:23;;;;;;;;;;;18.70;1.00;;;;;;5036398;28;19925;-50
2022/10/12 12:13:10;;;;;;;;;;;18.70;1.00;;;;;;5036409;28;19921;-52
2022/10/12 12:15:57;;;;;;;;;;;18.70;1.00;;;;;;5036394;28;19927;-51
2022/10/12 12:18:25;;;;;;;;;;;18.70;1.00;;;;;;5028953;28;19921;-53
2022/10/12 12:20:59;;;;;;;;;;;18.60;1.00;;;;;;5036497;28;20326;-53
2022/10/12 12:23:27;;;;;;;;;;;18.60;1.00;;;;;;5035994;28;19921;-50
2022/10/12 12:26:09;;;;;;;;;;;18.60;1.00;;;;;;5035994;28;20411;-53
2022/10/12 12:28:46;;;;;;;;;;;18.60;1.00;;;;;;5036167;28;20386;-52
2022/10/12 12:31:16;;;;;;;;;;;18.60;1.00;;;;;;5036731;28;20381;-49
2022/10/12 12:33:47;;;;;;;;;;;18.60;1.00;;;;;;5035833;28;19928;-54
2022/10/12 12:36:46;;;;;;;;;;;18.60;1.00;;;;;;5035834;28;20370;-52
2022/10/12 12:39:20;;;;;;;;;;;18.60;1.00;;;;;;5013480;28;19921;-56
2022/10/12 12:42:01;;;;;;;;;;;18.60;1.00;;;;;;5035872;28;19921;-53
2022/10/12 12:44:39;;;;;;;;;;;18.60;1.00;;;;;;5035935;28;20735;-48
2022/10/12 12:47:06;;;;;;;;;;;18.60;1.00;;;;;;5035845;28;19921;-54
2022/10/12 12:50:00;;;;;;;;;;;18.60;1.00;;;;;;5036126;28;19921;-48
2022/10/12 12:52:28;;;;;;;;;;;18.60;1.00;;;;;;5035093;28;19927;-51
2022/10/12 12:55:01;;;;;;;;;;;18.60;1.00;;;;;;5035746;28;20433;-50
2022/10/12 12:57:31;;;;;;;;;;;18.60;1.00;;;;;;5035776;28;19996;-52
2022/10/12 13:00:11;;;;;;;;;;;18.60;1.00;;;;;;5035686;28;19921;-50
2022/10/12 13:02:56;;;;;;;;;;;18.60;1.00;;;;;;5035284;28;19921;-52
2022/10/12 13:05:31;;;;;;;;;;;18.60;1.00;;;;;;5035678;28;19975;-53
2022/10/12 13:08:06;;;;;;;;;;;18.60;1.00;;;;;;5035385;28;20313;-53
2022/10/12 13:10:41;;;;;;;;;;;18.60;1.00;;;;;;5035253;28;19928;-51
2022/10/12 13:13:16;;;;;;;;;;;18.60;1.00;;;;;;5035325;28;19921;-55
2022/10/12 13:16:02;;;;;;;;;;;18.60;1.00;;;;;;5035088;28;19925;-53
2022/10/12 13:18:47;;;;;;;;;;;18.60;1.00;;;;;;5035333;28;19921;-56
2022/10/12 13:21:16;;;;;;;;;;;18.60;1.00;;;;;;5035291;28;19944;-48
2022/10/12 13:23:45;;;;;;;;;;;18.60;1.00;;;;;;5034996;28;19928;-57
2022/10/12 13:26:16;;;;;;;;;;;18.60;1.00;;;;;;5035470;28;19921;-54
2022/10/12 13:28:44;;;;;;;;;;;18.60;1.00;;;;;;5034839;28;19929;-53
2022/10/12 13:31:20;;;;;;;;;;;18.60;1.00;;;;;;5035065;28;19970;-51
2022/10/12 13:33:50;;;;;;;;;;;18.60;1.00;;;;;;5034567;28;19963;-55
2022/10/12 13:36:28;;;;;;;;;;;18.60;1.00;;;;;;5034684;28;19928;-54
2022/10/12 13:38:56;;;;;;;;;;;18.50;1.00;;;;;;5034690;28;19928;-53
2022/10/12 13:41:25;;;;;;;;;;;18.40;1.00;;;;;;5034887;28;19967;-54
2022/10/12 13:43:53;;;;;;;;;;;18.30;1.00;;;;;;5034453;28;20386;-54
2022/10/12 13:46:38;;;;;;;;;;;18.20;1.00;;;;;;5034522;28;19928;-55
2022/10/12 13:49:15;;;;;;;;;;;18.20;1.00;;;;;;5034213;28;20349;-50
2022/10/12 13:51:43;;;;;;;;;;;18.20;1.00;;;;;;5034486;28;19921;-56
2022/10/12 13:54:13;;;;;;;;;;;18.20;1.00;;;;;;5034205;28;19944;-50
2022/10/12 13:56:40;;;;;;;;;;;18.20;1.00;;;;;;5034348;28;19925;-54
2022/10/12 13:59:13;;;;;;;;;;;18.10;1.00;;;;;;5034327;28;19967;-52
2022/10/12 14:02:03;;;;;;;;;;;18.10;1.00;;;;;;5034233;28;19925;-48
2022/10/12 14:04:30;;;;;;;;;;;18.10;1.00;;;;;;5034100;28;19948;-53
2022/10/12 14:06:59;;;;;;;;;;;18.10;1.00;;;;;;5034218;28;19975;-50
2022/10/12 14:09:27;;;;;;;;;;;18.10;1.00;;;;;;5034625;28;20314;-52
2022/10/12 14:11:54;;;;;;;;;;;18.10;1.00;;;;;;5034005;28;20382;-54
2022/10/12 14:14:27;;;;;;;;;;;18.20;1.00;;;;;;5034067;28;19960;-54
2022/10/12 14:16:53;;;;;;;;;;;18.20;1.00;;;;;;5034549;28;19928;-52
2022/10/12 14:19:30;;;;;;;;;;;18.20;1.00;;;;;;5033732;28;19960;-50
2022/10/12 14:21:59;;;;;;;;;;;18.20;1.00;;;;;;5033381;28;20333;-51
2022/10/12 14:24:25;;;;;;;;;;;18.20;1.00;;;;;;5032577;28;19921;-53
2022/10/12 14:27:02;;;;;;;;;;;18.10;1.00;;;;;;5032641;28;19976;-52
2022/10/12 14:29:35;;;;;;;;;;;18.10;1.00;;;;;;5025554;28;19921;-47
2022/10/12 14:32:05;;;;;;;;;;;18.10;1.00;;;;;;5018518;28;20343;-53
2022/10/12 14:34:34;;;;;;;;;;;18.10;1.00;;;;;;5027878;28;19925;-53
2022/10/12 14:37:07;;;;;;;;;;;18.00;1.00;;;;;;5031203;28;19950;-51
2022/10/12 14:39:34;;;;;;;;;;;18.00;1.00;;;;;;5027885;28;19974;-55
2022/10/12 14:42:02;;;;;;;;;;;17.90;1.00;;;;;;5024900;28;19936;-53
2022/10/12 14:44:40;;;;;;;;;;;17.90;1.00;;;;;;5032901;28;19925;-53
2022/10/12 14:47:16;;;;;;;;;;;17.90;1.00;;;;;;5029432;28;19955;-50